sensor_id;sensor_type;location;lat;lon;timestamp;P1;durP1;ratioP1;P2;durP2;ratioP2
6941;SDS011;3510;43.200;27.920;2024-01-07T00:00:24;8.20;;;3.30;;
6941;SDS011;3510;43.200;27.920;2024-01-07T00:02:51;5.33;;;3.60;;
6941;SDS011;3510;43.200;27.920;2024-01-07T00:05:18;4.97;;;3.37;;
6941;SDS011;3510;43.200;27.920;2024-01-07T00:07:44;7.30;;;3.57;;
6941;SDS011;3510;43.200;27.920;2024-01-07T00:10:11;9.43;;;3.57;;
6941;SDS011;3510;43.200;27.920;2024-01-07T00:12:38;8.97;;;4.20;;
6941;SDS011;3510;43.200;27.920;2024-01-07T00:15:06;6.67;;;3.80;;
6941;SDS011;3510;43.200;27.920;2024-01-07T00:17:33;8.47;;;4.10;;
6941;SDS011;3510;43.200;27.920;2024-01-07T00:20:00;7.47;;;3.83;;
6941;SDS011;3510;43.200;27.920;2024-01-07T00:22:26;10.30;;;3.43;;
6941;SDS011;3510;43.200;27.920;2024-01-07T00:24:53;8.67;;;3.60;;
6941;SDS011;3510;43.200;27.920;2024-01-07T00:27:20;8.27;;;2.93;;
6941;SDS011;3510;43.200;27.920;2024-01-07T00:29:47;9.83;;;4.10;;
6941;SDS011;3510;43.200;27.920;2024-01-07T00:32:15;10.63;;;4.00;;
6941;SDS011;3510;43.200;27.920;2024-01-07T00:34:41;11.93;;;4.33;;
6941;SDS011;3510;43.200;27.920;2024-01-07T00:37:08;10.73;;;3.70;;
6941;SDS011;3510;43.200;27.920;2024-01-07T00:39:35;6.87;;;4.10;;
6941;SDS011;3510;43.200;27.920;2024-01-07T00:42:01;6.20;;;4.03;;
6941;SDS011;3510;43.200;27.920;2024-01-07T00:44:28;6.77;;;3.50;;
6941;SDS011;3510;43.200;27.920;2024-01-07T00:46:54;2.83;;;2.67;;
6941;SDS011;3510;43.200;27.920;2024-01-07T00:49:22;6.67;;;3.57;;
6941;SDS011;3510;43.200;27.920;2024-01-07T00:51:48;5.60;;;4.10;;
6941;SDS011;3510;43.200;27.920;2024-01-07T00:54:15;3.90;;;3.60;;
6941;SDS011;3510;43.200;27.920;2024-01-07T00:56:42;13.87;;;3.97;;
6941;SDS011;3510;43.200;27.920;2024-01-07T00:59:08;7.60;;;2.77;;
6941;SDS011;3510;43.200;27.920;2024-01-07T01:01:35;10.67;;;3.60;;
6941;SDS011;3510;43.200;27.920;2024-01-07T01:04:08;5.47;;;3.50;;
6941;SDS011;3510;43.200;27.920;2024-01-07T01:06:36;12.87;;;4.77;;
6941;SDS011;3510;43.200;27.920;2024-01-07T01:09:02;10.07;;;4.57;;
6941;SDS011;3510;43.200;27.920;2024-01-07T01:11:29;12.60;;;4.47;;
6941;SDS011;3510;43.200;27.920;2024-01-07T01:13:56;11.73;;;3.90;;
6941;SDS011;3510;43.200;27.920;2024-01-07T01:16:22;12.03;;;4.07;;
6941;SDS011;3510;43.200;27.920;2024-01-07T01:18:49;18.67;;;4.73;;
6941;SDS011;3510;43.200;27.920;2024-01-07T01:21:16;10.50;;;3.13;;
6941;SDS011;3510;43.200;27.920;2024-01-07T01:23:45;7.33;;;3.60;;
6941;SDS011;3510;43.200;27.920;2024-01-07T01:26:13;11.37;;;4.53;;
6941;SDS011;3510;43.200;27.920;2024-01-07T01:28:39;14.30;;;5.50;;
6941;SDS011;3510;43.200;27.920;2024-01-07T01:31:07;10.73;;;4.03;;
6941;SDS011;3510;43.200;27.920;2024-01-07T01:33:33;10.50;;;4.03;;
6941;SDS011;3510;43.200;27.920;2024-01-07T01:36:03;5.90;;;3.40;;
6941;SDS011;3510;43.200;27.920;2024-01-07T01:38:30;5.27;;;3.23;;
6941;SDS011;3510;43.200;27.920;2024-01-07T01:40:58;10.17;;;3.60;;
6941;SDS011;3510;43.200;27.920;2024-01-07T01:43:25;7.00;;;3.87;;
6941;SDS011;3510;43.200;27.920;2024-01-07T01:45:52;11.87;;;3.80;;
6941;SDS011;3510;43.200;27.920;2024-01-07T01:48:19;17.73;;;4.73;;
6941;SDS011;3510;43.200;27.920;2024-01-07T01:50:47;4.30;;;3.63;;
6941;SDS011;3510;43.200;27.920;2024-01-07T01:53:31;12.57;;;4.37;;
6941;SDS011;3510;43.200;27.920;2024-01-07T01:56:14;9.40;;;3.90;;
6941;SDS011;3510;43.200;27.920;2024-01-07T01:58:45;13.50;;;3.63;;
6941;SDS011;3510;43.200;27.920;2024-01-07T02:01:12;11.77;;;4.63;;
6941;SDS011;3510;43.200;27.920;2024-01-07T02:03:43;12.37;;;4.67;;
6941;SDS011;3510;43.200;27.920;2024-01-07T02:06:39;17.17;;;6.43;;
6941;SDS011;3510;43.200;27.920;2024-01-07T02:09:06;12.13;;;5.40;;
6941;SDS011;3510;43.200;27.920;2024-01-07T02:11:37;11.97;;;4.47;;
6941;SDS011;3510;43.200;27.920;2024-01-07T02:14:06;13.37;;;4.70;;
6941;SDS011;3510;43.200;27.920;2024-01-07T02:16:32;7.87;;;4.33;;
6941;SDS011;3510;43.200;27.920;2024-01-07T02:18:59;5.73;;;4.17;;
6941;SDS011;3510;43.200;27.920;2024-01-07T02:21:26;4.37;;;3.70;;
6941;SDS011;3510;43.200;27.920;2024-01-07T02:23:53;6.83;;;3.67;;
6941;SDS011;3510;43.200;27.920;2024-01-07T02:26:36;4.30;;;3.30;;
6941;SDS011;3510;43.200;27.920;2024-01-07T02:29:03;7.90;;;3.50;;
6941;SDS011;3510;43.200;27.920;2024-01-07T02:31:30;7.17;;;3.27;;
6941;SDS011;3510;43.200;27.920;2024-01-07T02:34:11;4.60;;;3.90;;
6941;SDS011;3510;43.200;27.920;2024-01-07T02:36:38;14.07;;;3.63;;
6941;SDS011;3510;43.200;27.920;2024-01-07T02:39:04;10.80;;;3.87;;
6941;SDS011;3510;43.200;27.920;2024-01-07T02:41:31;22.60;;;5.47;;
6941;SDS011;3510;43.200;27.920;2024-01-07T02:46:56;15.03;;;5.10;;
6941;SDS011;3510;43.200;27.920;2024-01-07T02:49:23;10.13;;;3.87;;
6941;SDS011;3510;43.200;27.920;2024-01-07T02:51:50;12.07;;;4.17;;
6941;SDS011;3510;43.200;27.920;2024-01-07T02:54:16;6.73;;;3.57;;
6941;SDS011;3510;43.200;27.920;2024-01-07T02:56:43;4.90;;;3.70;;
6941;SDS011;3510;43.200;27.920;2024-01-07T02:59:09;4.13;;;3.40;;
6941;SDS011;3510;43.200;27.920;2024-01-07T03:01:36;4.07;;;3.37;;
6941;SDS011;3510;43.200;27.920;2024-01-07T03:04:07;7.93;;;4.10;;
6941;SDS011;3510;43.200;27.920;2024-01-07T03:06:34;14.43;;;4.77;;
6941;SDS011;3510;43.200;27.920;2024-01-07T03:09:01;10.47;;;4.17;;
6941;SDS011;3510;43.200;27.920;2024-01-07T03:11:28;8.97;;;3.83;;
6941;SDS011;3510;43.200;27.920;2024-01-07T03:13:54;9.13;;;3.50;;
6941;SDS011;3510;43.200;27.920;2024-01-07T03:16:21;10.73;;;3.80;;
6941;SDS011;3510;43.200;27.920;2024-01-07T03:18:48;7.27;;;3.87;;
6941;SDS011;3510;43.200;27.920;2024-01-07T03:21:18;6.27;;;4.30;;
6941;SDS011;3510;43.200;27.920;2024-01-07T03:23:46;11.67;;;4.50;;
6941;SDS011;3510;43.200;27.920;2024-01-07T03:26:13;7.67;;;4.00;;
6941;SDS011;3510;43.200;27.920;2024-01-07T03:28:40;6.93;;;4.13;;
6941;SDS011;3510;43.200;27.920;2024-01-07T03:31:07;4.27;;;3.10;;
6941;SDS011;3510;43.200;27.920;2024-01-07T03:33:36;9.70;;;3.87;;
6941;SDS011;3510;43.200;27.920;2024-01-07T03:36:06;3.97;;;3.27;;
6941;SDS011;3510;43.200;27.920;2024-01-07T03:38:35;6.37;;;4.20;;
6941;SDS011;3510;43.200;27.920;2024-01-07T03:41:02;8.53;;;3.83;;
6941;SDS011;3510;43.200;27.920;2024-01-07T03:43:29;8.23;;;4.07;;
6941;SDS011;3510;43.200;27.920;2024-01-07T03:45:56;9.10;;;4.40;;
6941;SDS011;3510;43.200;27.920;2024-01-07T03:48:23;6.33;;;3.57;;
6941;SDS011;3510;43.200;27.920;2024-01-07T03:50:54;6.40;;;3.20;;
6941;SDS011;3510;43.200;27.920;2024-01-07T03:53:23;7.23;;;3.47;;
6941;SDS011;3510;43.200;27.920;2024-01-07T03:55:51;10.47;;;3.90;;
6941;SDS011;3510;43.200;27.920;2024-01-07T03:58:18;4.13;;;3.80;;
6941;SDS011;3510;43.200;27.920;2024-01-07T04:00:44;8.00;;;4.13;;
6941;SDS011;3510;43.200;27.920;2024-01-07T04:03:11;3.77;;;3.47;;
6941;SDS011;3510;43.200;27.920;2024-01-07T04:05:38;10.87;;;4.50;;
6941;SDS011;3510;43.200;27.920;2024-01-07T04:08:05;5.73;;;4.63;;
6941;SDS011;3510;43.200;27.920;2024-01-07T04:10:32;11.53;;;4.27;;
6941;SDS011;3510;43.200;27.920;2024-01-07T04:13:03;12.57;;;4.70;;
6941;SDS011;3510;43.200;27.920;2024-01-07T04:15:30;13.23;;;5.07;;
6941;SDS011;3510;43.200;27.920;2024-01-07T04:17:56;12.00;;;5.00;;
6941;SDS011;3510;43.200;27.920;2024-01-07T04:20:23;7.80;;;4.07;;
6941;SDS011;3510;43.200;27.920;2024-01-07T04:22:50;15.23;;;4.43;;
6941;SDS011;3510;43.200;27.920;2024-01-07T04:25:16;8.53;;;4.13;;
6941;SDS011;3510;43.200;27.920;2024-01-07T04:27:43;12.53;;;5.10;;
6941;SDS011;3510;43.200;27.920;2024-01-07T04:30:11;10.73;;;4.53;;
6941;SDS011;3510;43.200;27.920;2024-01-07T04:32:38;12.57;;;4.53;;
6941;SDS011;3510;43.200;27.920;2024-01-07T04:35:05;10.27;;;4.23;;
6941;SDS011;3510;43.200;27.920;2024-01-07T04:37:32;8.40;;;4.10;;
6941;SDS011;3510;43.200;27.920;2024-01-07T04:39:59;7.37;;;4.03;;
6941;SDS011;3510;43.200;27.920;2024-01-07T04:42:26;16.00;;;4.07;;
6941;SDS011;3510;43.200;27.920;2024-01-07T04:44:53;8.57;;;4.27;;
6941;SDS011;3510;43.200;27.920;2024-01-07T04:47:24;11.97;;;4.47;;
6941;SDS011;3510;43.200;27.920;2024-01-07T04:50:06;11.63;;;4.30;;
6941;SDS011;3510;43.200;27.920;2024-01-07T04:52:33;6.80;;;3.67;;
6941;SDS011;3510;43.200;27.920;2024-01-07T04:55:00;10.47;;;4.17;;
6941;SDS011;3510;43.200;27.920;2024-01-07T04:57:27;15.80;;;5.47;;
6941;SDS011;3510;43.200;27.920;2024-01-07T04:59:53;12.80;;;3.97;;
6941;SDS011;3510;43.200;27.920;2024-01-07T05:02:20;8.70;;;4.27;;
6941;SDS011;3510;43.200;27.920;2024-01-07T05:05:02;4.23;;;3.83;;
6941;SDS011;3510;43.200;27.920;2024-01-07T05:07:29;10.50;;;4.10;;
6941;SDS011;3510;43.200;27.920;2024-01-07T05:09:56;12.97;;;4.43;;
6941;SDS011;3510;43.200;27.920;2024-01-07T05:12:22;10.73;;;4.13;;
6941;SDS011;3510;43.200;27.920;2024-01-07T05:14:50;14.27;;;4.17;;
6941;SDS011;3510;43.200;27.920;2024-01-07T05:17:17;9.40;;;4.10;;
6941;SDS011;3510;43.200;27.920;2024-01-07T05:19:44;5.50;;;4.40;;
6941;SDS011;3510;43.200;27.920;2024-01-07T05:22:12;12.83;;;3.60;;
6941;SDS011;3510;43.200;27.920;2024-01-07T05:24:52;6.57;;;3.80;;
6941;SDS011;3510;43.200;27.920;2024-01-07T05:27:19;7.63;;;3.80;;
6941;SDS011;3510;43.200;27.920;2024-01-07T05:29:45;5.50;;;3.67;;
6941;SDS011;3510;43.200;27.920;2024-01-07T05:32:12;9.73;;;3.83;;
6941;SDS011;3510;43.200;27.920;2024-01-07T05:34:39;7.20;;;4.37;;
6941;SDS011;3510;43.200;27.920;2024-01-07T05:37:21;8.60;;;4.10;;
6941;SDS011;3510;43.200;27.920;2024-01-07T05:39:48;8.67;;;3.80;;
6941;SDS011;3510;43.200;27.920;2024-01-07T05:42:15;9.13;;;4.07;;
6941;SDS011;3510;43.200;27.920;2024-01-07T05:44:42;7.17;;;3.90;;
6941;SDS011;3510;43.200;27.920;2024-01-07T05:47:09;6.90;;;3.43;;
6941;SDS011;3510;43.200;27.920;2024-01-07T05:49:35;13.03;;;4.10;;
6941;SDS011;3510;43.200;27.920;2024-01-07T05:52:02;7.80;;;3.77;;
6941;SDS011;3510;43.200;27.920;2024-01-07T05:54:30;6.10;;;3.50;;
6941;SDS011;3510;43.200;27.920;2024-01-07T05:56:57;5.37;;;3.80;;
6941;SDS011;3510;43.200;27.920;2024-01-07T05:59:24;4.40;;;4.00;;
6941;SDS011;3510;43.200;27.920;2024-01-07T06:01:51;8.37;;;3.87;;
6941;SDS011;3510;43.200;27.920;2024-01-07T06:04:18;4.70;;;3.67;;
6941;SDS011;3510;43.200;27.920;2024-01-07T06:06:44;5.07;;;3.80;;
6941;SDS011;3510;43.200;27.920;2024-01-07T06:09:11;8.03;;;3.70;;
6941;SDS011;3510;43.200;27.920;2024-01-07T06:11:39;13.97;;;4.13;;
6941;SDS011;3510;43.200;27.920;2024-01-07T06:14:06;11.03;;;4.37;;
6941;SDS011;3510;43.200;27.920;2024-01-07T06:16:33;8.17;;;4.17;;
6941;SDS011;3510;43.200;27.920;2024-01-07T06:18:59;7.67;;;4.13;;
6941;SDS011;3510;43.200;27.920;2024-01-07T06:21:26;6.73;;;3.80;;
6941;SDS011;3510;43.200;27.920;2024-01-07T06:23:53;5.80;;;3.63;;
6941;SDS011;3510;43.200;27.920;2024-01-07T06:26:20;14.33;;;4.10;;
6941;SDS011;3510;43.200;27.920;2024-01-07T06:28:47;4.23;;;3.83;;
6941;SDS011;3510;43.200;27.920;2024-01-07T06:31:15;3.67;;;3.30;;
6941;SDS011;3510;43.200;27.920;2024-01-07T06:33:42;4.17;;;3.70;;
6941;SDS011;3510;43.200;27.920;2024-01-07T06:36:09;6.17;;;3.90;;
6941;SDS011;3510;43.200;27.920;2024-01-07T06:38:37;6.53;;;4.27;;
6941;SDS011;3510;43.200;27.920;2024-01-07T06:41:04;10.00;;;5.63;;
6941;SDS011;3510;43.200;27.920;2024-01-07T06:43:30;10.80;;;7.27;;
6941;SDS011;3510;43.200;27.920;2024-01-07T06:46:00;11.77;;;6.77;;
6941;SDS011;3510;43.200;27.920;2024-01-07T06:48:26;9.43;;;6.23;;
6941;SDS011;3510;43.200;27.920;2024-01-07T06:50:54;8.03;;;6.40;;
6941;SDS011;3510;43.200;27.920;2024-01-07T06:53:21;8.07;;;4.30;;
6941;SDS011;3510;43.200;27.920;2024-01-07T06:55:48;10.37;;;4.00;;
6941;SDS011;3510;43.200;27.920;2024-01-07T06:58:14;9.27;;;5.20;;
6941;SDS011;3510;43.200;27.920;2024-01-07T07:00:41;4.60;;;4.07;;
6941;SDS011;3510;43.200;27.920;2024-01-07T07:03:09;17.10;;;5.23;;
6941;SDS011;3510;43.200;27.920;2024-01-07T07:05:36;4.87;;;4.47;;
6941;SDS011;3510;43.200;27.920;2024-01-07T07:08:04;10.03;;;4.00;;
6941;SDS011;3510;43.200;27.920;2024-01-07T07:10:31;15.40;;;4.20;;
6941;SDS011;3510;43.200;27.920;2024-01-07T07:12:58;8.90;;;4.20;;
6941;SDS011;3510;43.200;27.920;2024-01-07T07:15:28;4.00;;;3.60;;
6941;SDS011;3510;43.200;27.920;2024-01-07T07:17:55;10.00;;;3.90;;
6941;SDS011;3510;43.200;27.920;2024-01-07T07:20:23;5.77;;;3.73;;
6941;SDS011;3510;43.200;27.920;2024-01-07T07:22:50;4.50;;;3.60;;
6941;SDS011;3510;43.200;27.920;2024-01-07T07:25:17;9.27;;;2.97;;
6941;SDS011;3510;43.200;27.920;2024-01-07T07:27:43;6.77;;;3.90;;
6941;SDS011;3510;43.200;27.920;2024-01-07T07:30:10;4.23;;;3.80;;
6941;SDS011;3510;43.200;27.920;2024-01-07T07:32:39;6.37;;;3.00;;
6941;SDS011;3510;43.200;27.920;2024-01-07T07:35:06;6.90;;;3.83;;
6941;SDS011;3510;43.200;27.920;2024-01-07T07:37:35;6.97;;;3.03;;
6941;SDS011;3510;43.200;27.920;2024-01-07T07:40:01;7.97;;;3.40;;
6941;SDS011;3510;43.200;27.920;2024-01-07T07:42:29;5.30;;;3.13;;
6941;SDS011;3510;43.200;27.920;2024-01-07T07:44:56;7.13;;;4.13;;
6941;SDS011;3510;43.200;27.920;2024-01-07T07:47:23;5.43;;;2.67;;
6941;SDS011;3510;43.200;27.920;2024-01-07T07:49:50;4.33;;;3.83;;
6941;SDS011;3510;43.200;27.920;2024-01-07T07:52:18;7.07;;;4.20;;
6941;SDS011;3510;43.200;27.920;2024-01-07T07:54:52;13.87;;;3.73;;
6941;SDS011;3510;43.200;27.920;2024-01-07T07:57:23;4.17;;;3.30;;
6941;SDS011;3510;43.200;27.920;2024-01-07T08:00:06;10.20;;;4.10;;
6941;SDS011;3510;43.200;27.920;2024-01-07T08:02:37;3.70;;;2.83;;
6941;SDS011;3510;43.200;27.920;2024-01-07T08:05:04;4.10;;;3.10;;
6941;SDS011;3510;43.200;27.920;2024-01-07T08:07:32;5.50;;;3.00;;
6941;SDS011;3510;43.200;27.920;2024-01-07T08:10:01;4.23;;;2.60;;
6941;SDS011;3510;43.200;27.920;2024-01-07T08:12:28;3.27;;;2.00;;
6941;SDS011;3510;43.200;27.920;2024-01-07T08:14:55;8.73;;;2.80;;
6941;SDS011;3510;43.200;27.920;2024-01-07T08:17:22;4.37;;;2.53;;
6941;SDS011;3510;43.200;27.920;2024-01-07T08:19:48;5.70;;;2.23;;
6941;SDS011;3510;43.200;27.920;2024-01-07T08:22:15;5.83;;;2.20;;
6941;SDS011;3510;43.200;27.920;2024-01-07T08:24:43;5.27;;;2.63;;
6941;SDS011;3510;43.200;27.920;2024-01-07T08:27:10;6.27;;;2.17;;
6941;SDS011;3510;43.200;27.920;2024-01-07T08:29:46;1.93;;;1.60;;
6941;SDS011;3510;43.200;27.920;2024-01-07T08:32:13;2.20;;;1.07;;
6941;SDS011;3510;43.200;27.920;2024-01-07T08:34:39;2.63;;;1.42;;
6941;SDS011;3510;43.200;27.920;2024-01-07T08:37:06;2.37;;;1.40;;
6941;SDS011;3510;43.200;27.920;2024-01-07T08:39:33;1.80;;;1.33;;
6941;SDS011;3510;43.200;27.920;2024-01-07T08:42:02;2.77;;;0.90;;
6941;SDS011;3510;43.200;27.920;2024-01-07T08:44:30;3.67;;;1.77;;
6941;SDS011;3510;43.200;27.920;2024-01-07T08:46:57;1.90;;;1.40;;
6941;SDS011;3510;43.200;27.920;2024-01-07T08:49:27;2.17;;;1.20;;
6941;SDS011;3510;43.200;27.920;2024-01-07T08:51:54;4.77;;;1.40;;
6941;SDS011;3510;43.200;27.920;2024-01-07T08:54:22;5.50;;;2.17;;
6941;SDS011;3510;43.200;27.920;2024-01-07T08:56:50;3.77;;;1.70;;
6941;SDS011;3510;43.200;27.920;2024-01-07T08:59:17;1.53;;;1.30;;
6941;SDS011;3510;43.200;27.920;2024-01-07T09:01:45;3.20;;;1.57;;
6941;SDS011;3510;43.200;27.920;2024-01-07T09:04:12;3.10;;;1.10;;
6941;SDS011;3510;43.200;27.920;2024-01-07T09:06:38;4.87;;;1.00;;
6941;SDS011;3510;43.200;27.920;2024-01-07T09:09:05;1.80;;;1.27;;
6941;SDS011;3510;43.200;27.920;2024-01-07T09:11:33;5.63;;;1.60;;
6941;SDS011;3510;43.200;27.920;2024-01-07T09:14:01;1.93;;;1.27;;
6941;SDS011;3510;43.200;27.920;2024-01-07T09:16:29;9.30;;;2.10;;
6941;SDS011;3510;43.200;27.920;2024-01-07T09:18:57;8.87;;;3.87;;
6941;SDS011;3510;43.200;27.920;2024-01-07T09:21:24;6.47;;;1.67;;
6941;SDS011;3510;43.200;27.920;2024-01-07T09:23:50;4.83;;;3.13;;
6941;SDS011;3510;43.200;27.920;2024-01-07T09:26:18;7.60;;;1.80;;
6941;SDS011;3510;43.200;27.920;2024-01-07T09:28:45;6.43;;;2.07;;
6941;SDS011;3510;43.200;27.920;2024-01-07T09:31:12;6.03;;;3.00;;
6941;SDS011;3510;43.200;27.920;2024-01-07T09:33:38;14.40;;;2.83;;
6941;SDS011;3510;43.200;27.920;2024-01-07T09:36:08;7.87;;;2.20;;
6941;SDS011;3510;43.200;27.920;2024-01-07T09:38:35;10.80;;;1.53;;
6941;SDS011;3510;43.200;27.920;2024-01-07T09:41:02;11.93;;;2.60;;
6941;SDS011;3510;43.200;27.920;2024-01-07T09:43:29;7.80;;;3.10;;
6941;SDS011;3510;43.200;27.920;2024-01-07T09:45:56;14.10;;;3.50;;
6941;SDS011;3510;43.200;27.920;2024-01-07T09:48:24;10.10;;;2.90;;
6941;SDS011;3510;43.200;27.920;2024-01-07T09:50:52;3.73;;;1.53;;
6941;SDS011;3510;43.200;27.920;2024-01-07T09:53:20;13.73;;;2.60;;
6941;SDS011;3510;43.200;27.920;2024-01-07T09:55:52;16.37;;;3.07;;
6941;SDS011;3510;43.200;27.920;2024-01-07T09:58:39;10.87;;;2.50;;
6941;SDS011;3510;43.200;27.920;2024-01-07T10:01:08;14.20;;;3.17;;
6941;SDS011;3510;43.200;27.920;2024-01-07T10:03:36;9.37;;;2.80;;
6941;SDS011;3510;43.200;27.920;2024-01-07T10:06:03;11.63;;;2.23;;
6941;SDS011;3510;43.200;27.920;2024-01-07T10:08:31;14.70;;;3.13;;
6941;SDS011;3510;43.200;27.920;2024-01-07T10:10:59;13.73;;;3.60;;
6941;SDS011;3510;43.200;27.920;2024-01-07T10:13:26;17.27;;;3.70;;
6941;SDS011;3510;43.200;27.920;2024-01-07T10:15:53;7.50;;;3.00;;
6941;SDS011;3510;43.200;27.920;2024-01-07T10:18:20;11.67;;;4.10;;
6941;SDS011;3510;43.200;27.920;2024-01-07T10:20:47;16.17;;;4.23;;
6941;SDS011;3510;43.200;27.920;2024-01-07T10:23:17;17.70;;;4.73;;
6941;SDS011;3510;43.200;27.920;2024-01-07T10:25:46;14.47;;;3.27;;
6941;SDS011;3510;43.200;27.920;2024-01-07T10:28:13;15.10;;;4.17;;
6941;SDS011;3510;43.200;27.920;2024-01-07T10:30:40;21.20;;;4.47;;
6941;SDS011;3510;43.200;27.920;2024-01-07T10:33:16;19.50;;;4.23;;
6941;SDS011;3510;43.200;27.920;2024-01-07T10:35:43;17.50;;;4.40;;
6941;SDS011;3510;43.200;27.920;2024-01-07T10:38:14;15.00;;;3.47;;
6941;SDS011;3510;43.200;27.920;2024-01-07T10:40:41;6.63;;;2.80;;
6941;SDS011;3510;43.200;27.920;2024-01-07T10:43:14;13.23;;;3.50;;
6941;SDS011;3510;43.200;27.920;2024-01-07T10:45:42;22.00;;;4.00;;
6941;SDS011;3510;43.200;27.920;2024-01-07T10:48:13;12.60;;;3.83;;
6941;SDS011;3510;43.200;27.920;2024-01-07T10:50:44;18.87;;;4.10;;
6941;SDS011;3510;43.200;27.920;2024-01-07T10:53:16;13.17;;;3.10;;
6941;SDS011;3510;43.200;27.920;2024-01-07T10:55:49;29.77;;;4.13;;
6941;SDS011;3510;43.200;27.920;2024-01-07T10:58:22;16.07;;;4.27;;
6941;SDS011;3510;43.200;27.920;2024-01-07T11:00:50;21.60;;;4.23;;
6941;SDS011;3510;43.200;27.920;2024-01-07T11:03:20;15.40;;;4.37;;
6941;SDS011;3510;43.200;27.920;2024-01-07T11:05:54;15.20;;;3.57;;
6941;SDS011;3510;43.200;27.920;2024-01-07T11:08:26;14.10;;;3.07;;
6941;SDS011;3510;43.200;27.920;2024-01-07T11:11:01;15.90;;;3.17;;
6941;SDS011;3510;43.200;27.920;2024-01-07T11:13:34;18.20;;;3.70;;
6941;SDS011;3510;43.200;27.920;2024-01-07T11:16:03;14.17;;;3.47;;
6941;SDS011;3510;43.200;27.920;2024-01-07T11:18:31;19.50;;;4.37;;
6941;SDS011;3510;43.200;27.920;2024-01-07T11:21:00;18.53;;;3.80;;
6941;SDS011;3510;43.200;27.920;2024-01-07T11:23:28;22.20;;;4.23;;
6941;SDS011;3510;43.200;27.920;2024-01-07T11:25:58;18.67;;;4.00;;
6941;SDS011;3510;43.200;27.920;2024-01-07T11:31:10;22.23;;;4.10;;
6941;SDS011;3510;43.200;27.920;2024-01-07T11:33:36;27.73;;;4.10;;
6941;SDS011;3510;43.200;27.920;2024-01-07T11:36:04;14.77;;;3.20;;
6941;SDS011;3510;43.200;27.920;2024-01-07T11:38:31;18.50;;;3.47;;
6941;SDS011;3510;43.200;27.920;2024-01-07T11:41:00;19.57;;;3.40;;
6941;SDS011;3510;43.200;27.920;2024-01-07T11:43:28;12.20;;;4.17;;
6941;SDS011;3510;43.200;27.920;2024-01-07T11:45:56;17.67;;;4.10;;
6941;SDS011;3510;43.200;27.920;2024-01-07T11:48:23;10.00;;;2.97;;
6941;SDS011;3510;43.200;27.920;2024-01-07T11:50:50;16.65;;;3.53;;
6941;SDS011;3510;43.200;27.920;2024-01-07T11:53:17;16.40;;;3.10;;
6941;SDS011;3510;43.200;27.920;2024-01-07T11:55:44;22.27;;;3.53;;
6941;SDS011;3510;43.200;27.920;2024-01-07T11:58:11;15.10;;;4.27;;
6941;SDS011;3510;43.200;27.920;2024-01-07T12:00:37;15.97;;;4.17;;
6941;SDS011;3510;43.200;27.920;2024-01-07T12:03:06;11.87;;;3.50;;
6941;SDS011;3510;43.200;27.920;2024-01-07T12:05:32;11.80;;;3.07;;
6941;SDS011;3510;43.200;27.920;2024-01-07T12:08:00;13.37;;;2.90;;
6941;SDS011;3510;43.200;27.920;2024-01-07T12:10:28;14.23;;;2.73;;
6941;SDS011;3510;43.200;27.920;2024-01-07T12:12:55;15.67;;;3.63;;
6941;SDS011;3510;43.200;27.920;2024-01-07T12:15:22;22.07;;;3.97;;
6941;SDS011;3510;43.200;27.920;2024-01-07T12:17:57;14.77;;;3.53;;
6941;SDS011;3510;43.200;27.920;2024-01-07T12:20:26;14.67;;;3.83;;
6941;SDS011;3510;43.200;27.920;2024-01-07T12:22:55;11.20;;;3.63;;
6941;SDS011;3510;43.200;27.920;2024-01-07T12:25:23;21.10;;;3.77;;
6941;SDS011;3510;43.200;27.920;2024-01-07T12:27:50;14.33;;;3.27;;
6941;SDS011;3510;43.200;27.920;2024-01-07T12:30:19;13.33;;;3.47;;
6941;SDS011;3510;43.200;27.920;2024-01-07T12:32:47;22.00;;;3.33;;
6941;SDS011;3510;43.200;27.920;2024-01-07T12:35:14;16.40;;;4.30;;
6941;SDS011;3510;43.200;27.920;2024-01-07T12:37:43;11.73;;;2.97;;
6941;SDS011;3510;43.200;27.920;2024-01-07T12:40:10;20.07;;;2.90;;
6941;SDS011;3510;43.200;27.920;2024-01-07T12:42:38;20.97;;;4.13;;
6941;SDS011;3510;43.200;27.920;2024-01-07T12:45:10;12.35;;;2.90;;
6941;SDS011;3510;43.200;27.920;2024-01-07T12:47:38;18.30;;;3.93;;
6941;SDS011;3510;43.200;27.920;2024-01-07T12:50:06;17.08;;;2.92;;
6941;SDS011;3510;43.200;27.920;2024-01-07T12:52:33;15.55;;;4.40;;
6941;SDS011;3510;43.200;27.920;2024-01-07T12:55:02;18.67;;;3.47;;
6941;SDS011;3510;43.200;27.920;2024-01-07T12:57:29;19.02;;;3.22;;
6941;SDS011;3510;43.200;27.920;2024-01-07T12:59:56;10.10;;;3.27;;
6941;SDS011;3510;43.200;27.920;2024-01-07T13:02:23;25.40;;;3.90;;
6941;SDS011;3510;43.200;27.920;2024-01-07T13:04:50;28.30;;;5.35;;
6941;SDS011;3510;43.200;27.920;2024-01-07T13:07:17;25.33;;;4.13;;
6941;SDS011;3510;43.200;27.920;2024-01-07T13:09:43;14.63;;;4.07;;
6941;SDS011;3510;43.200;27.920;2024-01-07T13:12:12;16.73;;;4.07;;
6941;SDS011;3510;43.200;27.920;2024-01-07T13:14:38;25.83;;;4.97;;
6941;SDS011;3510;43.200;27.920;2024-01-07T13:17:07;20.53;;;4.83;;
6941;SDS011;3510;43.200;27.920;2024-01-07T13:19:35;6.70;;;2.63;;
6941;SDS011;3510;43.200;27.920;2024-01-07T13:22:02;18.50;;;2.95;;
6941;SDS011;3510;43.200;27.920;2024-01-07T13:24:30;20.42;;;4.25;;
6941;SDS011;3510;43.200;27.920;2024-01-07T13:26:56;11.73;;;2.90;;
6941;SDS011;3510;43.200;27.920;2024-01-07T13:29:24;18.58;;;4.38;;
6941;SDS011;3510;43.200;27.920;2024-01-07T13:31:51;17.95;;;3.33;;
6941;SDS011;3510;43.200;27.920;2024-01-07T13:34:18;22.25;;;4.93;;
6941;SDS011;3510;43.200;27.920;2024-01-07T13:36:44;11.88;;;2.85;;
6941;SDS011;3510;43.200;27.920;2024-01-07T13:39:12;16.38;;;3.03;;
6941;SDS011;3510;43.200;27.920;2024-01-07T13:41:41;27.85;;;5.90;;
6941;SDS011;3510;43.200;27.920;2024-01-07T13:44:07;14.70;;;3.63;;
6941;SDS011;3510;43.200;27.920;2024-01-07T13:46:44;15.95;;;3.53;;
6941;SDS011;3510;43.200;27.920;2024-01-07T13:49:12;19.73;;;3.57;;
6941;SDS011;3510;43.200;27.920;2024-01-07T13:51:39;22.38;;;4.35;;
6941;SDS011;3510;43.200;27.920;2024-01-07T13:54:07;19.70;;;3.50;;
6941;SDS011;3510;43.200;27.920;2024-01-07T13:56:35;18.05;;;4.28;;
6941;SDS011;3510;43.200;27.920;2024-01-07T13:59:06;20.17;;;3.63;;
6941;SDS011;3510;43.200;27.920;2024-01-07T14:01:33;25.77;;;3.93;;
6941;SDS011;3510;43.200;27.920;2024-01-07T14:04:02;32.23;;;4.43;;
6941;SDS011;3510;43.200;27.920;2024-01-07T14:06:29;16.20;;;4.57;;
6941;SDS011;3510;43.200;27.920;2024-01-07T14:08:55;19.63;;;4.87;;
6941;SDS011;3510;43.200;27.920;2024-01-07T14:11:23;22.40;;;4.90;;
6941;SDS011;3510;43.200;27.920;2024-01-07T14:13:49;23.27;;;4.50;;
6941;SDS011;3510;43.200;27.920;2024-01-07T14:16:16;28.83;;;3.93;;
6941;SDS011;3510;43.200;27.920;2024-01-07T14:18:43;15.87;;;3.53;;
6941;SDS011;3510;43.200;27.920;2024-01-07T14:21:11;17.60;;;3.20;;
6941;SDS011;3510;43.200;27.920;2024-01-07T14:23:37;17.67;;;4.00;;
6941;SDS011;3510;43.200;27.920;2024-01-07T14:26:04;24.40;;;4.77;;
6941;SDS011;3510;43.200;27.920;2024-01-07T14:28:31;10.90;;;3.57;;
6941;SDS011;3510;43.200;27.920;2024-01-07T14:30:57;20.37;;;4.03;;
6941;SDS011;3510;43.200;27.920;2024-01-07T14:33:24;27.20;;;3.13;;
6941;SDS011;3510;43.200;27.920;2024-01-07T14:35:54;22.23;;;4.40;;
6941;SDS011;3510;43.200;27.920;2024-01-07T14:38:22;23.20;;;4.63;;
6941;SDS011;3510;43.200;27.920;2024-01-07T14:40:50;18.20;;;4.47;;
6941;SDS011;3510;43.200;27.920;2024-01-07T14:43:17;20.57;;;3.13;;
6941;SDS011;3510;43.200;27.920;2024-01-07T14:45:44;20.70;;;3.80;;
6941;SDS011;3510;43.200;27.920;2024-01-07T14:48:11;26.57;;;3.20;;
6941;SDS011;3510;43.200;27.920;2024-01-07T14:50:39;23.50;;;3.87;;
6941;SDS011;3510;43.200;27.920;2024-01-07T14:53:06;17.00;;;4.20;;
6941;SDS011;3510;43.200;27.920;2024-01-07T14:55:34;20.23;;;3.63;;
6941;SDS011;3510;43.200;27.920;2024-01-07T14:58:01;27.77;;;4.43;;
6941;SDS011;3510;43.200;27.920;2024-01-07T15:00:28;20.23;;;4.37;;
6941;SDS011;3510;43.200;27.920;2024-01-07T15:02:55;14.03;;;2.87;;